Airport View

Enter AWOS ICAO identifier for current METAR.

ex. KFNL

KDIK 191156Z AUTO 20004KT 10SM CLR M24/M27 A3016 RMK AO2 SLP291 T12391272 11233 21267 58020

19 Feb 2019 12:32

Frequency: 118.375

Phone: 701-227-0280

Other Area AWOS: KD57 - KBWW - KHEI - K20U

TAF KDIK 191127Z 1912/2012 21008KT P6SM SKC FM192000 18010KT P6SM FEW250 FM200600 18008KT P6SM SCT010 BKN060